Villamont, Virginia
Current Conditions -  °F | °C
As of 1:54 PM on Sunday 23 Nov 2014 (Local Time) from KROA Reporting Station
Broken Clouds Broken Clouds  
Wind Chill: 48°   Ceiling: 6000
Heat Index: 48°   Visibility: 10mi
Dew Point: 29°   Wind: 3mph
Humidity: 48%   Direction: 350°N
Pressure: 30.09"   Gusts: NA
Location:  37.4°N, 79.78°W
Report Text: KROA 231854Z 35003KT 10SM BKN060 BKN110 09/M02 A3009 RMK AO2 RAB19E37 SLP195 P0000 T00891017
Loading
Personal Weather Stations






























Interactive Weather Map New forecast layout! Learn more

10-Day Weather Forecast

Advertisements
Track Severe Weather on mobile